createdAt,value
2022-12-05T00:01:22.420Z,2.18
2022-12-05T00:03:51.412Z,2.20
2022-12-05T00:06:19.099Z,2.21
2022-12-05T00:08:46.502Z,2.23
2022-12-05T00:11:18.639Z,2.25
2022-12-05T00:13:46.552Z,2.26
2022-12-05T00:16:15.910Z,2.27
2022-12-05T00:18:43.717Z,2.28
2022-12-05T00:21:21.572Z,2.29
2022-12-05T00:23:49.386Z,2.29
2022-12-05T00:26:16.048Z,2.29
2022-12-05T00:28:43.444Z,2.30
2022-12-05T00:31:16.510Z,2.32
2022-12-05T00:33:44.222Z,2.34
2022-12-05T00:36:14.435Z,2.34
2022-12-05T00:38:42.226Z,2.31
2022-12-05T00:41:16.233Z,2.36
2022-12-05T00:43:46.008Z,2.36
2022-12-05T00:46:15.844Z,2.36
2022-12-05T00:48:43.365Z,2.39
2022-12-05T00:51:19.890Z,2.39
2022-12-05T00:53:49.628Z,2.40
2022-12-05T00:56:22.358Z,2.39
2022-12-05T00:58:53.111Z,2.39
2022-12-05T01:01:26.359Z,2.38
2022-12-05T01:03:57.919Z,2.38
2022-12-05T01:06:25.800Z,2.38
2022-12-05T01:08:54.556Z,2.39
2022-12-05T01:11:23.127Z,2.38
2022-12-05T01:13:52.911Z,2.37
2022-12-05T01:16:26.540Z,2.36
2022-12-05T01:18:54.427Z,2.36
2022-12-05T01:21:21.716Z,2.35
2022-12-05T01:23:49.023Z,2.36
2022-12-05T01:26:19.432Z,2.34
2022-12-05T01:28:46.707Z,2.34
2022-12-05T01:31:34.495Z,2.35
2022-12-05T01:34:03.438Z,2.35
2022-12-05T01:36:30.438Z,2.35
2022-12-05T01:38:57.661Z,2.37
2022-12-05T01:41:31.153Z,2.33
2022-12-05T01:44:03.422Z,2.36
2022-12-05T01:46:39.590Z,2.36
2022-12-05T01:49:17.256Z,2.37
2022-12-05T01:51:49.978Z,2.39
2022-12-05T01:54:18.562Z,2.39
2022-12-05T01:56:52.592Z,2.38
2022-12-05T01:59:22.128Z,2.38
2022-12-05T02:01:49.458Z,2.39
2022-12-05T02:04:16.424Z,2.40
2022-12-05T02:06:43.718Z,2.39
2022-12-05T02:09:10.488Z,2.40
2022-12-05T02:11:48.936Z,2.37
2022-12-05T02:14:53.576Z,2.42
2022-12-05T02:17:27.475Z,2.41
2022-12-05T02:20:05.441Z,2.40
2022-12-05T02:22:49.950Z,2.40
2022-12-05T02:25:50.840Z,2.41
2022-12-05T02:28:32.429Z,2.41
2022-12-05T02:31:26.656Z,2.42
2022-12-05T02:34:08.773Z,2.43
2022-12-05T02:36:43.818Z,2.44
2022-12-05T02:39:14.531Z,2.45
2022-12-05T02:41:50.173Z,2.46
2022-12-05T02:44:29.803Z,2.48
2022-12-05T02:47:00.092Z,2.48
2022-12-05T02:49:32.016Z,2.48
2022-12-05T02:52:02.509Z,2.50
2022-12-05T02:54:35.267Z,2.52
2022-12-05T02:57:02.212Z,2.54
2022-12-05T02:59:29.063Z,2.54
2022-12-05T03:01:57.834Z,2.57
2022-12-05T03:04:26.805Z,2.58
2022-12-05T03:07:07.270Z,2.59
2022-12-05T03:09:48.564Z,2.60
2022-12-05T03:12:20.384Z,2.63
2022-12-05T03:15:06.264Z,2.64
2022-12-05T03:17:41.037Z,2.66
2022-12-05T03:20:07.948Z,2.68
2022-12-05T03:22:46.682Z,2.70
2022-12-05T03:25:14.792Z,2.69
2022-12-05T03:27:58.181Z,2.73
2022-12-05T03:30:27.598Z,2.75
2022-12-05T03:33:20.582Z,2.75
2022-12-05T03:36:06.912Z,2.75
2022-12-05T03:38:42.349Z,2.77
2022-12-05T03:41:25.774Z,2.78
2022-12-05T03:44:13.845Z,2.78
2022-12-05T03:47:17.034Z,2.80
2022-12-05T03:49:49.821Z,2.80
2022-12-05T03:52:24.311Z,2.79
2022-12-05T03:54:57.566Z,2.82
2022-12-05T03:57:38.562Z,2.83
2022-12-05T04:00:12.879Z,2.82
2022-12-05T04:02:48.292Z,2.85
2022-12-05T04:05:22.237Z,2.82
2022-12-05T04:08:04.871Z,2.84
2022-12-05T04:10:48.883Z,2.85
2022-12-05T04:13:22.711Z,2.86
2022-12-05T04:16:18.435Z,2.87
2022-12-05T04:19:15.527Z,2.86
2022-12-05T04:21:47.975Z,2.87
2022-12-05T04:24:50.039Z,2.86
2022-12-05T04:27:19.286Z,2.86
2022-12-05T04:29:58.346Z,2.86
2022-12-05T04:32:31.043Z,2.85
2022-12-05T04:35:04.286Z,2.84
2022-12-05T04:37:36.802Z,2.85
2022-12-05T04:40:11.096Z,2.85
2022-12-05T04:42:39.010Z,2.87
2022-12-05T04:45:09.517Z,2.84
2022-12-05T04:47:44.903Z,2.83
2022-12-05T04:50:14.307Z,2.85
2022-12-05T04:52:43.144Z,2.86
2022-12-05T04:55:15.388Z,2.86
2022-12-05T04:58:09.445Z,2.87
2022-12-05T05:00:52.242Z,2.87
2022-12-05T05:03:30.393Z,2.88
2022-12-05T05:05:58.131Z,2.89
2022-12-05T05:08:28.874Z,2.90
2022-12-05T05:11:13.387Z,2.90
2022-12-05T05:13:41.746Z,2.90
2022-12-05T05:16:08.920Z,2.92
2022-12-05T05:18:35.669Z,2.93
2022-12-05T05:21:02.614Z,2.92
2022-12-05T05:23:29.561Z,2.94
2022-12-05T05:25:58.467Z,2.94
2022-12-05T05:28:25.713Z,2.96
2022-12-05T05:30:52.654Z,2.96
2022-12-05T05:33:19.578Z,2.96
2022-12-05T05:35:46.487Z,2.97
2022-12-05T05:38:13.739Z,2.99
2022-12-05T05:40:41.504Z,3.00
2022-12-05T05:43:08.392Z,3.02
2022-12-05T05:45:37.573Z,3.02
2022-12-05T05:48:08.233Z,3.03
2022-12-05T05:50:35.181Z,3.01
2022-12-05T05:53:02.831Z,3.04
2022-12-05T05:55:29.674Z,3.06
2022-12-05T05:57:59.744Z,3.07
2022-12-05T06:00:26.264Z,3.09
2022-12-05T06:02:53.188Z,3.11
2022-12-05T06:05:20.143Z,3.10
2022-12-05T06:07:46.762Z,3.12
2022-12-05T06:10:13.555Z,3.15
2022-12-05T06:12:41.316Z,3.16
2022-12-05T06:15:12.135Z,3.16
2022-12-05T06:17:39.152Z,3.19
2022-12-05T06:20:10.237Z,3.17
2022-12-05T06:22:38.979Z,3.20
2022-12-05T06:25:06.759Z,3.24
2022-12-05T06:27:34.300Z,3.25
2022-12-05T06:30:01.427Z,3.27
2022-12-05T06:32:31.680Z,3.28
2022-12-05T06:34:58.567Z,3.30
2022-12-05T06:37:25.186Z,3.32
2022-12-05T06:39:52.907Z,3.33
2022-12-05T06:42:22.286Z,3.35
2022-12-05T06:44:49.315Z,3.36
2022-12-05T06:47:16.534Z,3.38
2022-12-05T06:49:43.482Z,3.40
2022-12-05T06:52:10.794Z,3.41
2022-12-05T06:54:37.323Z,3.42
2022-12-05T06:57:04.126Z,3.44
2022-12-05T06:59:30.802Z,3.46
2022-12-05T07:01:58.035Z,3.47
2022-12-05T07:04:34.744Z,3.48
2022-12-05T07:07:04.377Z,3.48
2022-12-05T07:09:46.325Z,3.50
2022-12-05T07:12:18.102Z,3.50
2022-12-05T07:14:47.983Z,3.52
2022-12-05T07:17:15.492Z,3.52
2022-12-05T07:19:43.638Z,3.51
2022-12-05T07:22:15.896Z,3.54
2022-12-05T07:24:46.275Z,3.54
2022-12-05T07:27:14.583Z,3.56
2022-12-05T07:29:41.500Z,3.58
2022-12-05T07:32:10.364Z,3.59
2022-12-05T07:34:38.924Z,3.60
2022-12-05T07:37:05.937Z,3.60
2022-12-05T07:39:32.602Z,3.61
2022-12-05T07:41:59.610Z,3.60
2022-12-05T07:44:26.280Z,3.63
2022-12-05T07:46:55.930Z,3.62
2022-12-05T07:49:23.008Z,3.64
2022-12-05T07:51:53.211Z,3.66
2022-12-05T07:54:19.831Z,3.65
2022-12-05T07:56:48.132Z,3.66
2022-12-05T07:59:14.722Z,3.69
2022-12-05T08:01:41.650Z,3.69
2022-12-05T08:04:14.878Z,3.72
2022-12-05T08:06:45.133Z,3.74
2022-12-05T08:09:11.712Z,3.74
2022-12-05T08:11:40.616Z,3.75
2022-12-05T08:14:10.140Z,3.76
2022-12-05T08:16:37.417Z,3.77
2022-12-05T08:19:07.047Z,3.78
2022-12-05T08:21:35.177Z,3.80
2022-12-05T08:24:04.959Z,3.81
2022-12-05T08:26:33.095Z,3.83
2022-12-05T09:00:07.470Z,10.63
2022-12-05T09:02:34.250Z,8.84
2022-12-05T09:05:19.365Z,7.88
2022-12-05T09:07:50.482Z,7.27
2022-12-05T09:10:18.101Z,6.69
2022-12-05T09:12:45.195Z,6.24
2022-12-05T09:15:12.686Z,5.92
2022-12-05T09:17:41.887Z,5.74
2022-12-05T09:20:14.110Z,5.60
2022-12-05T09:22:42.254Z,5.44
2022-12-05T09:25:10.800Z,5.32
2022-12-05T09:27:37.444Z,5.23
2022-12-05T09:30:05.830Z,5.20
2022-12-05T09:32:35.283Z,5.17
2022-12-05T09:35:03.158Z,5.12
2022-12-05T09:37:39.140Z,5.09
2022-12-05T09:40:07.648Z,5.07
2022-12-05T09:43:17.550Z,5.05
2022-12-05T09:46:10.754Z,5.03
2022-12-05T09:48:40.957Z,5.00
2022-12-05T09:51:12.548Z,4.98
2022-12-05T09:53:42.308Z,4.97
2022-12-05T09:56:09.148Z,4.98
2022-12-05T09:58:48.050Z,4.98
2022-12-05T10:01:27.912Z,4.98
2022-12-05T10:04:08.126Z,4.99
2022-12-05T10:06:49.144Z,4.99
2022-12-05T10:09:40.383Z,5.00
2022-12-05T10:12:34.314Z,5.00
2022-12-05T10:15:19.511Z,5.00
2022-12-05T10:17:52.685Z,5.02
2022-12-05T10:20:34.315Z,5.03
2022-12-05T10:23:06.834Z,5.04
2022-12-05T10:25:37.356Z,5.03
2022-12-05T10:28:15.594Z,5.04
2022-12-05T10:30:42.876Z,5.04
2022-12-05T10:33:21.828Z,5.05
2022-12-05T10:35:54.161Z,5.08
2022-12-05T10:38:30.900Z,5.09
2022-12-05T10:41:06.101Z,5.09
2022-12-05T10:43:35.389Z,5.11
2022-12-05T10:46:02.810Z,5.12
2022-12-05T10:48:31.650Z,5.12
2022-12-05T10:50:59.874Z,5.12
2022-12-05T10:53:39.555Z,5.13
2022-12-05T10:56:44.782Z,5.12
2022-12-05T10:59:15.499Z,5.10
2022-12-05T11:02:01.655Z,5.09
2022-12-05T11:04:58.495Z,5.10
2022-12-05T11:07:38.239Z,5.10
2022-12-05T11:10:27.849Z,5.09
2022-12-05T11:13:00.573Z,5.08
2022-12-05T11:15:29.835Z,5.11
2022-12-05T11:18:16.945Z,5.13
2022-12-05T11:20:46.042Z,5.17
2022-12-05T11:23:23.866Z,5.20
2022-12-05T11:25:51.601Z,5.19
2022-12-05T11:28:20.586Z,5.20
2022-12-05T11:31:12.943Z,5.20
2022-12-05T11:33:39.775Z,5.22
2022-12-05T11:36:19.720Z,5.25
2022-12-05T11:38:47.048Z,5.25
2022-12-05T11:41:41.632Z,5.27
2022-12-05T11:44:18.149Z,5.27
2022-12-05T11:46:52.407Z,5.25
2022-12-05T11:49:35.773Z,5.25
2022-12-05T11:52:20.324Z,5.30
2022-12-05T11:55:13.254Z,5.30
2022-12-05T11:58:04.762Z,5.29
2022-12-05T12:00:31.389Z,5.31
2022-12-05T12:03:33.125Z,5.32
2022-12-05T12:06:32.750Z,5.28
2022-12-05T12:09:18.081Z,5.25
2022-12-05T12:11:59.704Z,5.29
2022-12-05T12:14:39.477Z,5.29
2022-12-05T12:17:29.291Z,5.31
2022-12-05T12:20:17.495Z,5.31
2022-12-05T12:23:14.482Z,5.32
2022-12-05T12:26:02.413Z,5.32
2022-12-05T12:28:41.815Z,5.28
2022-12-05T12:31:41.047Z,5.28
2022-12-05T12:34:38.687Z,5.28
2022-12-05T12:37:29.642Z,5.27
2022-12-05T12:40:17.781Z,5.24
2022-12-05T12:42:52.402Z,5.27
2022-12-05T12:45:25.026Z,5.24
2022-12-05T12:48:19.979Z,5.24
2022-12-05T12:50:51.905Z,5.23
2022-12-05T12:53:30.785Z,5.22
2022-12-05T12:56:05.582Z,5.23
2022-12-05T12:59:09.242Z,5.23
2022-12-05T13:01:55.102Z,5.22
2022-12-05T13:04:33.665Z,5.21
2022-12-05T13:07:08.320Z,5.20
2022-12-05T13:09:51.872Z,5.19
2022-12-05T13:12:28.442Z,5.16
2022-12-05T13:15:07.585Z,5.14
2022-12-05T13:17:34.668Z,5.15
2022-12-05T13:20:04.603Z,5.15
2022-12-05T13:22:31.833Z,5.14
2022-12-05T13:24:58.603Z,5.13
2022-12-05T13:27:27.804Z,5.11
2022-12-05T13:29:58.752Z,5.10
2022-12-05T13:32:38.528Z,5.10
2022-12-05T13:35:07.991Z,5.09
2022-12-05T13:37:54.513Z,5.09
2022-12-05T13:40:46.760Z,5.11
2022-12-05T13:43:17.533Z,5.08
2022-12-05T13:46:00.959Z,5.08
2022-12-05T13:48:31.371Z,5.05
2022-12-05T13:51:04.604Z,5.04
2022-12-05T13:53:45.623Z,5.05
2022-12-05T13:56:12.100Z,5.03
2022-12-05T13:58:55.623Z,5.03
2022-12-05T14:01:25.343Z,5.03
2022-12-05T14:03:52.588Z,5.02
2022-12-05T14:06:40.241Z,5.02
2022-12-05T14:09:19.410Z,5.01
2022-12-05T14:12:14.030Z,5.01
2022-12-05T14:14:55.923Z,5.04
2022-12-05T14:17:42.407Z,5.03
2022-12-05T14:20:36.914Z,5.01
2022-12-05T14:23:29.273Z,5.01
2022-12-05T14:26:22.855Z,5.02
2022-12-05T14:28:58.649Z,5.03
2022-12-05T14:31:51.255Z,5.05
2022-12-05T14:34:25.342Z,5.03
2022-12-05T14:37:07.566Z,5.03
2022-12-05T14:39:39.476Z,5.06
2022-12-05T14:42:21.453Z,5.04
2022-12-05T14:44:50.165Z,5.04
2022-12-05T14:47:27.132Z,5.03
2022-12-05T14:50:05.047Z,5.01
2022-12-05T14:52:34.834Z,5.03
2022-12-05T14:55:10.924Z,5.03
2022-12-05T14:57:46.347Z,5.04
2022-12-05T15:00:21.580Z,5.06
2022-12-05T15:02:51.495Z,5.06
2022-12-05T15:05:22.158Z,5.06
2022-12-05T15:07:51.195Z,5.04
2022-12-05T15:10:33.790Z,5.03
2022-12-05T15:13:05.179Z,5.04
2022-12-05T15:15:45.914Z,5.02
2022-12-05T15:18:27.422Z,5.03
2022-12-05T15:21:35.865Z,5.03
2022-12-05T15:24:06.571Z,4.99
2022-12-05T15:26:49.411Z,4.99
2022-12-05T15:29:28.675Z,4.99
2022-12-05T15:31:58.743Z,4.96
2022-12-05T15:34:56.160Z,4.99
2022-12-05T15:37:25.986Z,4.99
2022-12-05T15:40:03.398Z,4.99
2022-12-05T15:42:37.401Z,4.99
2022-12-05T15:45:16.405Z,4.99
2022-12-05T15:47:45.644Z,4.98
2022-12-05T15:50:30.169Z,4.98
2022-12-05T15:53:03.255Z,4.97
2022-12-05T15:55:48.323Z,4.98
2022-12-05T15:58:26.118Z,4.95
2022-12-05T16:01:05.303Z,4.96
2022-12-05T16:04:12.632Z,4.97
2022-12-05T16:06:53.191Z,4.97
2022-12-05T16:09:28.919Z,4.95
2022-12-05T16:11:59.555Z,4.95
2022-12-05T16:17:22.350Z,4.95
2022-12-05T16:19:49.284Z,4.94
2022-12-05T16:22:25.844Z,4.94
2022-12-05T16:24:57.438Z,4.93
2022-12-05T16:27:39.621Z,4.93
2022-12-05T16:30:14.728Z,4.93
2022-12-05T16:32:45.501Z,4.92
2022-12-05T16:35:31.176Z,4.91
2022-12-05T16:38:09.937Z,4.92
2022-12-05T16:40:37.386Z,4.92
2022-12-05T16:43:06.540Z,4.93
2022-12-05T16:45:45.316Z,4.92
2022-12-05T16:48:18.849Z,4.94
2022-12-05T16:50:48.584Z,4.93
2022-12-05T16:53:20.317Z,4.93
2022-12-05T16:55:48.465Z,4.92
2022-12-05T16:58:22.427Z,4.93
2022-12-05T17:00:49.873Z,4.94
2022-12-05T17:03:34.984Z,4.94
2022-12-05T17:06:03.165Z,4.93
2022-12-05T17:08:32.145Z,4.93
2022-12-05T17:10:59.625Z,4.94
2022-12-05T17:13:26.165Z,4.95
2022-12-05T17:15:53.010Z,4.96
2022-12-05T17:18:29.624Z,4.96
2022-12-05T17:21:03.207Z,4.96
2022-12-05T17:23:30.914Z,4.98
2022-12-05T17:25:58.979Z,4.98
2022-12-05T17:28:26.120Z,4.97
2022-12-05T17:30:52.765Z,4.98
2022-12-05T17:33:22.022Z,4.97
2022-12-05T17:35:52.330Z,4.96
2022-12-05T17:38:22.118Z,4.97
2022-12-05T17:40:48.764Z,4.97
2022-12-05T17:43:19.932Z,4.96
2022-12-05T17:45:49.760Z,4.97
2022-12-05T17:48:16.559Z,4.96
2022-12-05T17:50:48.385Z,4.98
2022-12-05T17:53:17.963Z,4.97
2022-12-05T17:55:45.323Z,4.97
2022-12-05T17:58:15.139Z,4.97
2022-12-05T18:00:43.403Z,4.98
2022-12-05T18:03:14.025Z,4.99
2022-12-05T18:05:41.712Z,4.99
2022-12-05T18:08:10.014Z,4.98
2022-12-05T18:10:36.489Z,5.00
2022-12-05T18:13:03.506Z,4.98
2022-12-05T18:15:30.506Z,5.00
2022-12-05T18:17:57.104Z,5.00
2022-12-05T18:20:23.738Z,5.00
2022-12-05T18:22:51.319Z,4.99
2022-12-05T18:25:20.522Z,5.00
2022-12-05T18:27:53.465Z,4.99
2022-12-05T18:30:20.613Z,5.00
2022-12-05T18:32:47.608Z,5.00
2022-12-05T18:35:17.308Z,5.00
2022-12-05T18:37:44.200Z,5.01
2022-12-05T18:40:13.411Z,5.02
2022-12-05T18:42:40.427Z,5.03
2022-12-05T18:45:09.373Z,5.03
2022-12-05T18:47:36.704Z,5.04
2022-12-05T18:50:03.565Z,5.04
2022-12-05T18:52:30.241Z,5.04
2022-12-05T18:55:15.701Z,5.04
2022-12-05T18:57:44.394Z,5.04
2022-12-05T19:00:13.828Z,5.05
2022-12-05T19:02:42.325Z,5.03
2022-12-05T19:05:10.005Z,5.03
2022-12-05T19:07:37.203Z,5.02
2022-12-05T19:10:04.288Z,5.01
2022-12-05T19:12:31.737Z,4.99
2022-12-05T19:15:01.197Z,4.99
2022-12-05T19:17:28.387Z,5.00
2022-12-05T19:19:57.371Z,4.99
2022-12-05T19:22:24.502Z,5.00
2022-12-05T19:24:54.726Z,4.99
2022-12-05T19:27:26.322Z,4.98
2022-12-05T19:29:53.057Z,4.96
2022-12-05T19:32:19.756Z,4.96
2022-12-05T19:34:48.459Z,4.95
2022-12-05T19:37:15.118Z,4.94
2022-12-05T19:39:42.873Z,4.95
2022-12-05T19:42:09.874Z,4.95
2022-12-05T19:44:39.947Z,4.95
2022-12-05T19:47:07.339Z,4.94
2022-12-05T19:49:35.055Z,4.95
2022-12-05T19:52:04.071Z,4.94
2022-12-05T19:54:31.788Z,4.94
2022-12-05T19:57:00.650Z,4.94
2022-12-05T19:59:27.467Z,4.95
2022-12-05T20:01:54.504Z,4.94
2022-12-05T20:04:21.551Z,4.94
2022-12-05T20:06:49.372Z,4.95
2022-12-05T20:09:20.125Z,4.94
2022-12-05T20:11:54.595Z,4.95
2022-12-05T20:14:27.041Z,4.94
2022-12-05T20:16:54.454Z,4.95
2022-12-05T20:19:21.849Z,4.94
2022-12-05T20:21:48.511Z,4.95
2022-12-05T20:24:15.190Z,4.95
2022-12-05T20:26:44.124Z,4.96
2022-12-05T20:29:11.664Z,4.96
2022-12-05T20:31:41.758Z,4.99
2022-12-05T20:34:10.617Z,4.98
2022-12-05T20:36:37.752Z,4.98
2022-12-05T20:39:12.448Z,4.98
2022-12-05T20:41:39.915Z,4.98
2022-12-05T20:44:08.943Z,4.98
2022-12-05T20:46:36.841Z,5.00
2022-12-05T20:49:04.182Z,4.99
2022-12-05T20:51:33.251Z,5.01
2022-12-05T20:54:01.997Z,5.01
2022-12-05T20:56:31.737Z,4.99
2022-12-05T20:59:03.108Z,5.00
2022-12-05T21:01:32.540Z,5.01
2022-12-05T21:03:59.720Z,5.00
2022-12-05T21:06:32.523Z,5.01
2022-12-05T21:09:00.937Z,5.01
2022-12-05T21:11:28.363Z,5.01
2022-12-05T21:13:56.255Z,5.03
2022-12-05T21:16:23.808Z,5.03
2022-12-05T21:18:51.754Z,5.05
2022-12-05T21:21:21.570Z,5.05
2022-12-05T21:23:54.365Z,5.03
2022-12-05T21:26:22.365Z,4.99
2022-12-05T21:28:51.790Z,4.98
2022-12-05T21:31:22.651Z,4.98
2022-12-05T21:33:56.409Z,4.95
2022-12-05T21:36:24.549Z,4.95
2022-12-05T21:38:55.897Z,4.95
2022-12-05T21:41:26.774Z,4.96
2022-12-05T21:43:55.468Z,4.96
2022-12-05T21:46:27.104Z,4.96
2022-12-05T21:48:54.478Z,4.97
2022-12-05T21:51:22.156Z,4.98
2022-12-05T21:53:49.217Z,5.00
2022-12-05T21:56:19.917Z,5.01
2022-12-05T21:58:47.798Z,5.01
2022-12-05T22:01:23.009Z,5.03
2022-12-05T22:03:59.098Z,5.04
2022-12-05T22:06:26.069Z,5.03
2022-12-05T22:08:54.500Z,5.03
2022-12-05T22:11:21.759Z,5.05
2022-12-05T22:13:49.179Z,5.07
2022-12-05T22:16:17.584Z,5.08
2022-12-05T22:18:44.871Z,5.08
2022-12-05T22:21:17.594Z,5.10
2022-12-05T22:23:47.493Z,5.09
2022-12-05T22:26:17.139Z,5.11
2022-12-05T22:28:44.555Z,5.13
2022-12-05T22:31:14.991Z,5.12
2022-12-05T22:33:42.232Z,5.14
2022-12-05T22:36:11.471Z,5.14
2022-12-05T22:38:39.966Z,5.15
2022-12-05T22:41:15.539Z,5.15
2022-12-05T22:43:45.970Z,5.14
2022-12-05T22:46:15.716Z,5.14
2022-12-05T22:48:42.987Z,5.14
2022-12-05T22:51:15.777Z,5.14
2022-12-05T22:53:42.664Z,5.13
2022-12-05T22:56:11.770Z,5.13
2022-12-05T22:58:40.699Z,5.12
2022-12-05T23:01:21.704Z,5.11
2022-12-05T23:03:50.657Z,5.10
2022-12-05T23:06:18.514Z,5.11
2022-12-05T23:08:47.990Z,5.10
2022-12-05T23:11:18.763Z,5.09
2022-12-05T23:13:47.002Z,5.09
2022-12-05T23:16:21.604Z,5.08
2022-12-05T23:18:56.379Z,5.10
2022-12-05T23:21:30.978Z,5.09
2022-12-05T23:24:00.602Z,5.10
2022-12-05T23:26:33.226Z,5.11
2022-12-05T23:29:00.484Z,5.11
2022-12-05T23:31:27.626Z,5.09
2022-12-05T23:34:01.286Z,5.09
2022-12-05T23:36:32.615Z,5.09
2022-12-05T23:38:59.761Z,5.09
2022-12-05T23:41:27.766Z,5.06
2022-12-05T23:43:56.768Z,5.07
2022-12-05T23:46:25.755Z,5.06
2022-12-05T23:48:53.536Z,5.06
2022-12-05T23:51:26.068Z,5.06
2022-12-05T23:56:35.395Z,5.08
2022-12-05T23:59:04.819Z,5.07
